sensor_id;sensor_type;location;lat;lon;timestamp;temperature;humidity
10530;DHT22;5313;48.834;9.228;2023-01-01T00:00:38;13.20;99.90
10530;DHT22;5313;48.834;9.228;2023-01-01T00:03:03;13.30;99.90
10530;DHT22;5313;48.834;9.228;2023-01-01T00:05:29;13.30;99.90
10530;DHT22;5313;48.834;9.228;2023-01-01T00:07:54;13.30;99.90
10530;DHT22;5313;48.834;9.228;2023-01-01T00:10:20;13.30;99.90
10530;DHT22;5313;48.834;9.228;2023-01-01T00:12:58;13.30;99.90
10530;DHT22;5313;48.834;9.228;2023-01-01T00:15:25;13.30;99.90
10530;DHT22;5313;48.834;9.228;2023-01-01T00:17:51;15.90;99.90
10530;DHT22;5313;48.834;9.228;2023-01-01T00:20:18;13.20;99.90
10530;DHT22;5313;48.834;9.228;2023-01-01T00:22:43;13.20;99.90
10530;DHT22;5313;48.834;9.228;2023-01-01T00:25:10;13.20;99.90
10530;DHT22;5313;48.834;9.228;2023-01-01T00:27:38;13.20;99.90
10530;DHT22;5313;48.834;9.228;2023-01-01T00:30:04;13.20;99.90
10530;DHT22;5313;48.834;9.228;2023-01-01T00:32:30;13.20;99.90
10530;DHT22;5313;48.834;9.228;2023-01-01T00:34:55;13.20;99.90
10530;DHT22;5313;48.834;9.228;2023-01-01T00:37:21;14.70;99.90
10530;DHT22;5313;48.834;9.228;2023-01-01T00:39:46;13.20;99.90
10530;DHT22;5313;48.834;9.228;2023-01-01T00:42:12;13.20;99.90
10530;DHT22;5313;48.834;9.228;2023-01-01T00:44:37;13.20;99.90
10530;DHT22;5313;48.834;9.228;2023-01-01T00:47:03;13.30;99.90
10530;DHT22;5313;48.834;9.228;2023-01-01T00:49:28;13.20;99.90
10530;DHT22;5313;48.834;9.228;2023-01-01T00:51:54;13.20;99.90
10530;DHT22;5313;48.834;9.228;2023-01-01T00:54:19;13.10;99.90
10530;DHT22;5313;48.834;9.228;2023-01-01T00:56:45;13.10;99.90
10530;DHT22;5313;48.834;9.228;2023-01-01T00:59:10;13.00;99.90
10530;DHT22;5313;48.834;9.228;2023-01-01T01:01:36;13.00;99.90
10530;DHT22;5313;48.834;9.228;2023-01-01T01:04:03;13.10;99.90
10530;DHT22;5313;48.834;9.228;2023-01-01T01:06:28;13.10;99.90
10530;DHT22;5313;48.834;9.228;2023-01-01T01:08:54;13.20;99.90
10530;DHT22;5313;48.834;9.228;2023-01-01T01:11:23;13.30;99.90
10530;DHT22;5313;48.834;9.228;2023-01-01T01:13:51;13.40;99.90
10530;DHT22;5313;48.834;9.228;2023-01-01T01:16:26;13.50;99.90
10530;DHT22;5313;48.834;9.228;2023-01-01T01:18:54;13.60;99.90
10530;DHT22;5313;48.834;9.228;2023-01-01T01:21:21;13.60;99.90
10530;DHT22;5313;48.834;9.228;2023-01-01T01:23:47;13.70;99.90
10530;DHT22;5313;48.834;9.228;2023-01-01T01:26:19;13.70;99.90
10530;DHT22;5313;48.834;9.228;2023-01-01T01:28:44;13.80;99.90
10530;DHT22;5313;48.834;9.228;2023-01-01T01:31:10;13.80;99.90
10530;DHT22;5313;48.834;9.228;2023-01-01T01:33:36;13.80;99.90
10530;DHT22;5313;48.834;9.228;2023-01-01T01:36:03;13.80;99.90
10530;DHT22;5313;48.834;9.228;2023-01-01T01:38:29;13.80;99.90
10530;DHT22;5313;48.834;9.228;2023-01-01T01:40:54;13.70;99.90
10530;DHT22;5313;48.834;9.228;2023-01-01T01:43:23;13.60;99.90
10530;DHT22;5313;48.834;9.228;2023-01-01T01:45:53;13.60;99.90
10530;DHT22;5313;48.834;9.228;2023-01-01T01:48:20;13.60;99.90
10530;DHT22;5313;48.834;9.228;2023-01-01T01:50:48;13.60;99.90
10530;DHT22;5313;48.834;9.228;2023-01-01T01:53:23;13.60;99.90
10530;DHT22;5313;48.834;9.228;2023-01-01T01:55:58;13.60;99.90
10530;DHT22;5313;48.834;9.228;2023-01-01T01:58:26;13.60;99.90
10530;DHT22;5313;48.834;9.228;2023-01-01T02:00:53;13.50;99.90
10530;DHT22;5313;48.834;9.228;2023-01-01T02:05:48;13.30;99.90
10530;DHT22;5313;48.834;9.228;2023-01-01T02:08:14;13.20;99.90
10530;DHT22;5313;48.834;9.228;2023-01-01T02:10:40;13.10;99.90
10530;DHT22;5313;48.834;9.228;2023-01-01T02:13:06;13.00;99.90
10530;DHT22;5313;48.834;9.228;2023-01-01T02:15:40;12.90;99.90
10530;DHT22;5313;48.834;9.228;2023-01-01T02:18:10;12.90;99.90
10530;DHT22;5313;48.834;9.228;2023-01-01T02:20:52;12.90;99.90
10530;DHT22;5313;48.834;9.228;2023-01-01T02:26:30;13.10;99.90
10530;DHT22;5313;48.834;9.228;2023-01-01T02:29:24;13.20;99.90
10530;DHT22;5313;48.834;9.228;2023-01-01T02:32:05;13.30;99.90
10530;DHT22;5313;48.834;9.228;2023-01-01T02:34:37;13.40;99.90
10530;DHT22;5313;48.834;9.228;2023-01-01T02:37:05;13.50;99.90
10530;DHT22;5313;48.834;9.228;2023-01-01T02:39:34;13.70;99.90
10530;DHT22;5313;48.834;9.228;2023-01-01T02:42:05;13.80;99.90
10530;DHT22;5313;48.834;9.228;2023-01-01T02:44:34;13.90;99.90
10530;DHT22;5313;48.834;9.228;2023-01-01T02:47:09;13.90;99.90
10530;DHT22;5313;48.834;9.228;2023-01-01T02:49:38;13.80;99.90
10530;DHT22;5313;48.834;9.228;2023-01-01T02:52:20;13.80;99.90
10530;DHT22;5313;48.834;9.228;2023-01-01T02:54:56;13.80;99.90
10530;DHT22;5313;48.834;9.228;2023-01-01T02:57:35;13.80;99.90
10530;DHT22;5313;48.834;9.228;2023-01-01T03:00:09;13.80;99.90
10530;DHT22;5313;48.834;9.228;2023-01-01T03:08:53;13.00;99.90
10530;DHT22;5313;48.834;9.228;2023-01-01T03:11:22;12.50;99.90
10530;DHT22;5313;48.834;9.228;2023-01-01T03:14:07;12.30;99.90
10530;DHT22;5313;48.834;9.228;2023-01-01T03:16:43;12.20;99.90
10530;DHT22;5313;48.834;9.228;2023-01-01T03:19:19;12.10;99.90
10530;DHT22;5313;48.834;9.228;2023-01-01T03:22:08;12.00;99.90
10530;DHT22;5313;48.834;9.228;2023-01-01T03:27:30;11.80;99.90
10530;DHT22;5313;48.834;9.228;2023-01-01T03:29:59;11.80;99.90
10530;DHT22;5313;48.834;9.228;2023-01-01T03:32:41;11.70;99.90
10530;DHT22;5313;48.834;9.228;2023-01-01T03:35:45;11.60;99.90
10530;DHT22;5313;48.834;9.228;2023-01-01T03:38:20;11.60;99.90
10530;DHT22;5313;48.834;9.228;2023-01-01T03:40:48;11.60;99.90
10530;DHT22;5313;48.834;9.228;2023-01-01T03:45:53;11.60;99.90
10530;DHT22;5313;48.834;9.228;2023-01-01T03:48:19;11.60;99.90
10530;DHT22;5313;48.834;9.228;2023-01-01T03:53:28;12.00;99.90
10530;DHT22;5313;48.834;9.228;2023-01-01T03:56:34;12.30;99.90
10530;DHT22;5313;48.834;9.228;2023-01-01T04:01:46;12.90;99.90
10530;DHT22;5313;48.834;9.228;2023-01-01T04:04:14;13.00;99.90
10530;DHT22;5313;48.834;9.228;2023-01-01T04:06:40;13.00;99.90
10530;DHT22;5313;48.834;9.228;2023-01-01T04:09:10;13.10;99.90
10530;DHT22;5313;48.834;9.228;2023-01-01T04:11:40;13.10;99.90
10530;DHT22;5313;48.834;9.228;2023-01-01T04:16:58;12.80;99.90
10530;DHT22;5313;48.834;9.228;2023-01-01T04:19:23;12.70;99.90
10530;DHT22;5313;48.834;9.228;2023-01-01T04:21:49;12.50;99.90
10530;DHT22;5313;48.834;9.228;2023-01-01T04:24:15;12.40;99.90
10530;DHT22;5313;48.834;9.228;2023-01-01T04:26:40;12.20;99.90
10530;DHT22;5313;48.834;9.228;2023-01-01T04:29:06;12.20;99.90
10530;DHT22;5313;48.834;9.228;2023-01-01T04:31:33;12.10;99.90
10530;DHT22;5313;48.834;9.228;2023-01-01T04:33:58;12.10;99.90
10530;DHT22;5313;48.834;9.228;2023-01-01T04:36:24;11.90;99.90
10530;DHT22;5313;48.834;9.228;2023-01-01T04:38:49;11.80;99.90
10530;DHT22;5313;48.834;9.228;2023-01-01T04:41:15;11.70;99.90
10530;DHT22;5313;48.834;9.228;2023-01-01T04:43:40;11.70;99.90
10530;DHT22;5313;48.834;9.228;2023-01-01T04:46:06;11.80;99.90
10530;DHT22;5313;48.834;9.228;2023-01-01T04:48:34;11.90;99.90
10530;DHT22;5313;48.834;9.228;2023-01-01T04:51:03;12.00;99.90
10530;DHT22;5313;48.834;9.228;2023-01-01T04:53:31;12.10;99.90
10530;DHT22;5313;48.834;9.228;2023-01-01T04:58:30;12.40;99.90
10530;DHT22;5313;48.834;9.228;2023-01-01T05:00:56;12.40;99.90
10530;DHT22;5313;48.834;9.228;2023-01-01T05:03:22;12.30;99.90
10530;DHT22;5313;48.834;9.228;2023-01-01T05:06:05;12.30;99.90
10530;DHT22;5313;48.834;9.228;2023-01-01T05:08:32;12.40;99.90
10530;DHT22;5313;48.834;9.228;2023-01-01T05:11:00;12.40;99.90
10530;DHT22;5313;48.834;9.228;2023-01-01T05:13:26;12.50;99.90
10530;DHT22;5313;48.834;9.228;2023-01-01T05:15:51;12.60;99.90
10530;DHT22;5313;48.834;9.228;2023-01-01T05:18:17;12.70;99.90
10530;DHT22;5313;48.834;9.228;2023-01-01T05:20:42;12.70;99.90
10530;DHT22;5313;48.834;9.228;2023-01-01T05:23:08;12.80;99.90
10530;DHT22;5313;48.834;9.228;2023-01-01T05:25:33;12.70;99.90
10530;DHT22;5313;48.834;9.228;2023-01-01T05:27:59;12.80;99.90
10530;DHT22;5313;48.834;9.228;2023-01-01T05:30:24;12.80;99.90
10530;DHT22;5313;48.834;9.228;2023-01-01T05:32:50;12.80;99.90
10530;DHT22;5313;48.834;9.228;2023-01-01T05:35:15;12.80;99.90
10530;DHT22;5313;48.834;9.228;2023-01-01T05:37:41;12.70;99.90
10530;DHT22;5313;48.834;9.228;2023-01-01T05:40:07;12.60;99.90
10530;DHT22;5313;48.834;9.228;2023-01-01T05:42:33;12.50;99.90
10530;DHT22;5313;48.834;9.228;2023-01-01T05:44:58;12.40;99.90
10530;DHT22;5313;48.834;9.228;2023-01-01T05:47:24;12.40;99.90
10530;DHT22;5313;48.834;9.228;2023-01-01T05:49:49;12.30;99.90
10530;DHT22;5313;48.834;9.228;2023-01-01T05:52:15;12.30;99.90
10530;DHT22;5313;48.834;9.228;2023-01-01T05:54:40;12.30;99.90
10530;DHT22;5313;48.834;9.228;2023-01-01T05:57:06;12.20;99.90
10530;DHT22;5313;48.834;9.228;2023-01-01T05:59:31;12.20;99.90
10530;DHT22;5313;48.834;9.228;2023-01-01T06:01:57;12.20;99.90
10530;DHT22;5313;48.834;9.228;2023-01-01T06:04:22;12.20;99.90
10530;DHT22;5313;48.834;9.228;2023-01-01T06:06:48;12.10;99.90
10530;DHT22;5313;48.834;9.228;2023-01-01T06:09:13;12.00;99.90
10530;DHT22;5313;48.834;9.228;2023-01-01T06:11:39;12.00;99.90
10530;DHT22;5313;48.834;9.228;2023-01-01T06:14:04;11.90;99.90
10530;DHT22;5313;48.834;9.228;2023-01-01T06:16:30;11.90;99.90
10530;DHT22;5313;48.834;9.228;2023-01-01T06:18:56;11.90;99.90
10530;DHT22;5313;48.834;9.228;2023-01-01T06:21:23;12.00;99.90
10530;DHT22;5313;48.834;9.228;2023-01-01T06:23:49;12.00;99.90
10530;DHT22;5313;48.834;9.228;2023-01-01T06:26:18;12.10;99.90
10530;DHT22;5313;48.834;9.228;2023-01-01T06:28:44;12.10;99.90
10530;DHT22;5313;48.834;9.228;2023-01-01T06:31:12;12.20;99.90
10530;DHT22;5313;48.834;9.228;2023-01-01T06:33:39;12.20;99.90
10530;DHT22;5313;48.834;9.228;2023-01-01T06:36:07;12.20;99.90
10530;DHT22;5313;48.834;9.228;2023-01-01T06:38:34;12.30;99.90
10530;DHT22;5313;48.834;9.228;2023-01-01T06:41:02;12.30;99.90
10530;DHT22;5313;48.834;9.228;2023-01-01T06:43:29;12.40;99.90
10530;DHT22;5313;48.834;9.228;2023-01-01T06:48:32;12.30;99.90
10530;DHT22;5313;48.834;9.228;2023-01-01T06:51:03;12.30;99.90
10530;DHT22;5313;48.834;9.228;2023-01-01T06:53:29;12.40;99.90
10530;DHT22;5313;48.834;9.228;2023-01-01T06:55:54;12.40;99.90
10530;DHT22;5313;48.834;9.228;2023-01-01T06:58:20;12.40;99.90
10530;DHT22;5313;48.834;9.228;2023-01-01T07:00:45;12.40;99.90
10530;DHT22;5313;48.834;9.228;2023-01-01T07:03:11;12.40;99.90
10530;DHT22;5313;48.834;9.228;2023-01-01T07:05:36;12.40;99.90
10530;DHT22;5313;48.834;9.228;2023-01-01T07:08:02;12.50;99.90
10530;DHT22;5313;48.834;9.228;2023-01-01T07:10:28;12.50;99.90
10530;DHT22;5313;48.834;9.228;2023-01-01T07:12:53;12.50;99.90
10530;DHT22;5313;48.834;9.228;2023-01-01T07:15:19;12.50;99.90
10530;DHT22;5313;48.834;9.228;2023-01-01T07:17:44;12.40;99.90
10530;DHT22;5313;48.834;9.228;2023-01-01T07:20:10;12.40;99.90
10530;DHT22;5313;48.834;9.228;2023-01-01T07:22:37;12.40;99.90
10530;DHT22;5313;48.834;9.228;2023-01-01T07:25:05;12.30;99.90
10530;DHT22;5313;48.834;9.228;2023-01-01T07:27:30;12.20;99.90
10530;DHT22;5313;48.834;9.228;2023-01-01T07:29:56;12.20;99.90
10530;DHT22;5313;48.834;9.228;2023-01-01T07:32:21;12.30;99.90
10530;DHT22;5313;48.834;9.228;2023-01-01T07:34:47;12.30;99.90
10530;DHT22;5313;48.834;9.228;2023-01-01T07:37:12;12.40;99.90
10530;DHT22;5313;48.834;9.228;2023-01-01T07:39:38;12.40;99.90
10530;DHT22;5313;48.834;9.228;2023-01-01T07:42:04;12.40;99.90
10530;DHT22;5313;48.834;9.228;2023-01-01T07:44:29;12.40;99.90
10530;DHT22;5313;48.834;9.228;2023-01-01T07:47:06;12.30;99.90
10530;DHT22;5313;48.834;9.228;2023-01-01T07:49:36;12.40;99.90
10530;DHT22;5313;48.834;9.228;2023-01-01T07:52:01;12.40;99.90
10530;DHT22;5313;48.834;9.228;2023-01-01T07:54:27;12.40;99.90
10530;DHT22;5313;48.834;9.228;2023-01-01T07:56:52;12.40;99.90
10530;DHT22;5313;48.834;9.228;2023-01-01T07:59:18;12.40;99.90
10530;DHT22;5313;48.834;9.228;2023-01-01T08:01:43;12.50;99.90
10530;DHT22;5313;48.834;9.228;2023-01-01T08:04:09;12.40;99.90
10530;DHT22;5313;48.834;9.228;2023-01-01T08:06:36;12.40;99.90
10530;DHT22;5313;48.834;9.228;2023-01-01T08:09:02;12.40;99.90
10530;DHT22;5313;48.834;9.228;2023-01-01T08:11:27;12.40;99.90
10530;DHT22;5313;48.834;9.228;2023-01-01T08:13:53;12.30;99.90
10530;DHT22;5313;48.834;9.228;2023-01-01T08:16:19;12.30;99.90
10530;DHT22;5313;48.834;9.228;2023-01-01T08:18:45;12.30;99.90
10530;DHT22;5313;48.834;9.228;2023-01-01T08:21:11;12.20;99.90
10530;DHT22;5313;48.834;9.228;2023-01-01T08:23:36;12.20;99.90
10530;DHT22;5313;48.834;9.228;2023-01-01T08:26:02;12.10;99.90
10530;DHT22;5313;48.834;9.228;2023-01-01T08:28:28;12.00;99.90
10530;DHT22;5313;48.834;9.228;2023-01-01T08:30:54;12.00;99.90
10530;DHT22;5313;48.834;9.228;2023-01-01T08:33:20;12.00;99.90
10530;DHT22;5313;48.834;9.228;2023-01-01T08:35:47;12.00;99.90
10530;DHT22;5313;48.834;9.228;2023-01-01T08:38:13;12.10;99.90
10530;DHT22;5313;48.834;9.228;2023-01-01T08:40:38;12.10;99.90
10530;DHT22;5313;48.834;9.228;2023-01-01T08:43:04;12.10;99.90
10530;DHT22;5313;48.834;9.228;2023-01-01T08:45:30;12.20;99.90
10530;DHT22;5313;48.834;9.228;2023-01-01T08:47:55;12.30;99.90
10530;DHT22;5313;48.834;9.228;2023-01-01T08:50:21;12.40;99.90
10530;DHT22;5313;48.834;9.228;2023-01-01T08:52:46;12.40;99.90
10530;DHT22;5313;48.834;9.228;2023-01-01T08:55:12;12.50;99.90
10530;DHT22;5313;48.834;9.228;2023-01-01T08:57:37;12.70;99.90
10530;DHT22;5313;48.834;9.228;2023-01-01T09:00:03;12.80;99.90
10530;DHT22;5313;48.834;9.228;2023-01-01T09:02:30;12.90;99.90
10530;DHT22;5313;48.834;9.228;2023-01-01T09:04:56;13.00;99.90
10530;DHT22;5313;48.834;9.228;2023-01-01T09:07:21;13.10;99.90
10530;DHT22;5313;48.834;9.228;2023-01-01T09:09:47;13.20;99.90
10530;DHT22;5313;48.834;9.228;2023-01-01T09:12:15;13.20;99.90
10530;DHT22;5313;48.834;9.228;2023-01-01T09:14:40;13.30;99.90
10530;DHT22;5313;48.834;9.228;2023-01-01T09:17:06;13.30;99.90
10530;DHT22;5313;48.834;9.228;2023-01-01T09:19:31;13.50;99.90
10530;DHT22;5313;48.834;9.228;2023-01-01T09:21:57;13.70;99.90
10530;DHT22;5313;48.834;9.228;2023-01-01T09:24:23;13.70;99.90
10530;DHT22;5313;48.834;9.228;2023-01-01T09:26:48;13.70;99.90
10530;DHT22;5313;48.834;9.228;2023-01-01T09:29:14;13.70;99.90
10530;DHT22;5313;48.834;9.228;2023-01-01T09:31:43;13.60;99.90
10530;DHT22;5313;48.834;9.228;2023-01-01T09:34:09;13.60;99.90
10530;DHT22;5313;48.834;9.228;2023-01-01T09:36:34;13.50;99.90
10530;DHT22;5313;48.834;9.228;2023-01-01T09:39:00;13.60;99.90
10530;DHT22;5313;48.834;9.228;2023-01-01T09:46:48;13.90;99.90
10530;DHT22;5313;48.834;9.228;2023-01-01T09:49:25;14.10;99.90
10530;DHT22;5313;48.834;9.228;2023-01-01T09:51:55;14.20;99.90
10530;DHT22;5313;48.834;9.228;2023-01-01T09:54:32;14.50;99.90
10530;DHT22;5313;48.834;9.228;2023-01-01T09:57:00;14.60;99.90
10530;DHT22;5313;48.834;9.228;2023-01-01T09:59:26;14.70;99.90
10530;DHT22;5313;48.834;9.228;2023-01-01T10:01:53;14.90;99.90
10530;DHT22;5313;48.834;9.228;2023-01-01T10:04:45;14.80;99.90
10530;DHT22;5313;48.834;9.228;2023-01-01T10:07:19;14.90;99.90
10530;DHT22;5313;48.834;9.228;2023-01-01T10:10:12;14.90;99.90
10530;DHT22;5313;48.834;9.228;2023-01-01T10:13:07;15.00;99.90
10530;DHT22;5313;48.834;9.228;2023-01-01T10:15:51;14.90;99.90
10530;DHT22;5313;48.834;9.228;2023-01-01T10:18:25;14.90;99.90
10530;DHT22;5313;48.834;9.228;2023-01-01T10:23:26;15.30;99.90
10530;DHT22;5313;48.834;9.228;2023-01-01T10:25:54;15.40;99.90
10530;DHT22;5313;48.834;9.228;2023-01-01T10:28:26;15.40;99.90
10530;DHT22;5313;48.834;9.228;2023-01-01T10:31:16;15.60;99.90
10530;DHT22;5313;48.834;9.228;2023-01-01T10:33:44;15.70;99.90
10530;DHT22;5313;48.834;9.228;2023-01-01T10:36:12;15.70;99.90
10530;DHT22;5313;48.834;9.228;2023-01-01T10:38:38;15.70;99.90
10530;DHT22;5313;48.834;9.228;2023-01-01T10:41:09;15.70;99.90
10530;DHT22;5313;48.834;9.228;2023-01-01T10:43:36;15.80;99.90
10530;DHT22;5313;48.834;9.228;2023-01-01T10:46:02;15.80;99.90
10530;DHT22;5313;48.834;9.228;2023-01-01T10:48:29;16.00;99.90
10530;DHT22;5313;48.834;9.228;2023-01-01T10:50:57;16.10;99.90
10530;DHT22;5313;48.834;9.228;2023-01-01T10:56:13;16.40;99.90
10530;DHT22;5313;48.834;9.228;2023-01-01T10:58:47;16.40;99.90
10530;DHT22;5313;48.834;9.228;2023-01-01T11:06:36;16.70;99.90
10530;DHT22;5313;48.834;9.228;2023-01-01T11:09:19;16.90;99.90
10530;DHT22;5313;48.834;9.228;2023-01-01T11:11:47;17.00;99.90
10530;DHT22;5313;48.834;9.228;2023-01-01T11:14:33;17.00;99.90
10530;DHT22;5313;48.834;9.228;2023-01-01T11:17:01;17.00;99.90
10530;DHT22;5313;48.834;9.228;2023-01-01T11:19:29;17.30;99.90
10530;DHT22;5313;48.834;9.228;2023-01-01T11:21:56;17.40;99.90
10530;DHT22;5313;48.834;9.228;2023-01-01T11:24:26;17.70;99.90
10530;DHT22;5313;48.834;9.228;2023-01-01T11:26:53;18.00;99.90
10530;DHT22;5313;48.834;9.228;2023-01-01T11:29:35;18.10;99.90
10530;DHT22;5313;48.834;9.228;2023-01-01T11:32:01;18.30;99.90
10530;DHT22;5313;48.834;9.228;2023-01-01T11:34:37;18.50;99.90
10530;DHT22;5313;48.834;9.228;2023-01-01T11:39:50;18.50;99.90
10530;DHT22;5313;48.834;9.228;2023-01-01T11:42:22;18.40;99.90
10530;DHT22;5313;48.834;9.228;2023-01-01T11:44:58;18.30;99.90
10530;DHT22;5313;48.834;9.228;2023-01-01T11:50:02;18.10;99.90
10530;DHT22;5313;48.834;9.228;2023-01-01T11:52:38;18.10;99.90
10530;DHT22;5313;48.834;9.228;2023-01-01T11:57:58;18.10;99.90
10530;DHT22;5313;48.834;9.228;2023-01-01T12:00:27;18.20;99.90
10530;DHT22;5313;48.834;9.228;2023-01-01T12:03:35;18.30;99.90
10530;DHT22;5313;48.834;9.228;2023-01-01T12:11:28;18.50;99.90
10530;DHT22;5313;48.834;9.228;2023-01-01T12:14:32;18.60;99.90
10530;DHT22;5313;48.834;9.228;2023-01-01T12:17:19;18.90;99.90
10530;DHT22;5313;48.834;9.228;2023-01-01T12:20:18;19.30;99.90
10530;DHT22;5313;48.834;9.228;2023-01-01T12:22:48;19.30;99.90
10530;DHT22;5313;48.834;9.228;2023-01-01T12:25:17;19.40;99.90
10530;DHT22;5313;48.834;9.228;2023-01-01T12:27:56;19.50;99.90
10530;DHT22;5313;48.834;9.228;2023-01-01T12:36:56;19.60;99.90
10530;DHT22;5313;48.834;9.228;2023-01-01T12:42:15;19.30;99.90
10530;DHT22;5313;48.834;9.228;2023-01-01T12:45:07;19.30;99.90
10530;DHT22;5313;48.834;9.228;2023-01-01T12:50:34;19.70;99.90
10530;DHT22;5313;48.834;9.228;2023-01-01T12:56:05;19.00;99.90
10530;DHT22;5313;48.834;9.228;2023-01-01T12:58:59;18.90;99.90
10530;DHT22;5313;48.834;9.228;2023-01-01T13:01:31;18.70;99.90
10530;DHT22;5313;48.834;9.228;2023-01-01T13:04:07;18.70;99.90
10530;DHT22;5313;48.834;9.228;2023-01-01T13:06:53;18.80;99.90
10530;DHT22;5313;48.834;9.228;2023-01-01T13:09:24;18.80;99.90
10530;DHT22;5313;48.834;9.228;2023-01-01T13:11:54;19.00;99.90
10530;DHT22;5313;48.834;9.228;2023-01-01T13:14:21;18.80;99.90
10530;DHT22;5313;48.834;9.228;2023-01-01T13:16:51;18.90;99.90
10530;DHT22;5313;48.834;9.228;2023-01-01T13:19:29;18.90;99.90
10530;DHT22;5313;48.834;9.228;2023-01-01T13:21:55;19.00;99.90
10530;DHT22;5313;48.834;9.228;2023-01-01T13:24:25;18.80;99.90
10530;DHT22;5313;48.834;9.228;2023-01-01T13:26:52;18.90;99.90
10530;DHT22;5313;48.834;9.228;2023-01-01T13:51:02;18.30;99.90
10530;DHT22;5313;48.834;9.228;2023-01-01T13:53:44;18.30;99.90
10530;DHT22;5313;48.834;9.228;2023-01-01T14:01:34;18.20;99.90
10530;DHT22;5313;48.834;9.228;2023-01-01T14:04:11;18.30;99.90
10530;DHT22;5313;48.834;9.228;2023-01-01T14:06:40;18.20;99.90
10530;DHT22;5313;48.834;9.228;2023-01-01T14:09:12;18.20;99.90
10530;DHT22;5313;48.834;9.228;2023-01-01T14:11:38;18.20;99.90
10530;DHT22;5313;48.834;9.228;2023-01-01T14:14:18;18.10;99.90
10530;DHT22;5313;48.834;9.228;2023-01-01T14:16:59;18.10;99.90
10530;DHT22;5313;48.834;9.228;2023-01-01T14:19:25;18.10;99.90
10530;DHT22;5313;48.834;9.228;2023-01-01T14:21:51;18.10;99.90
10530;DHT22;5313;48.834;9.228;2023-01-01T14:24:19;18.20;99.90
10530;DHT22;5313;48.834;9.228;2023-01-01T14:26:46;18.10;99.90
10530;DHT22;5313;48.834;9.228;2023-01-01T14:29:28;18.10;99.90
10530;DHT22;5313;48.834;9.228;2023-01-01T14:31:57;18.00;99.90
10530;DHT22;5313;48.834;9.228;2023-01-01T14:36:56;17.90;99.90
10530;DHT22;5313;48.834;9.228;2023-01-01T14:39:26;17.80;99.90
10530;DHT22;5313;48.834;9.228;2023-01-01T14:41:52;17.80;99.90
10530;DHT22;5313;48.834;9.228;2023-01-01T14:44:21;17.80;99.90
10530;DHT22;5313;48.834;9.228;2023-01-01T14:46:49;17.80;99.90
10530;DHT22;5313;48.834;9.228;2023-01-01T14:49:19;17.60;99.90
10530;DHT22;5313;48.834;9.228;2023-01-01T14:51:52;17.40;99.90
10530;DHT22;5313;48.834;9.228;2023-01-01T14:54:20;17.40;99.90
10530;DHT22;5313;48.834;9.228;2023-01-01T14:56:48;17.30;99.90
10530;DHT22;5313;48.834;9.228;2023-01-01T14:59:20;17.20;99.90
10530;DHT22;5313;48.834;9.228;2023-01-01T15:02:10;17.10;99.90
10530;DHT22;5313;48.834;9.228;2023-01-01T15:04:37;17.00;99.90
10530;DHT22;5313;48.834;9.228;2023-01-01T15:07:03;16.90;99.90
10530;DHT22;5313;48.834;9.228;2023-01-01T15:09:30;16.80;99.90
10530;DHT22;5313;48.834;9.228;2023-01-01T15:11:57;16.70;99.90
10530;DHT22;5313;48.834;9.228;2023-01-01T15:17:04;16.30;99.90
10530;DHT22;5313;48.834;9.228;2023-01-01T15:19:30;16.30;99.90
10530;DHT22;5313;48.834;9.228;2023-01-01T15:21:56;16.30;99.90
10530;DHT22;5313;48.834;9.228;2023-01-01T15:24:23;16.20;99.90
10530;DHT22;5313;48.834;9.228;2023-01-01T15:26:56;16.00;99.90
10530;DHT22;5313;48.834;9.228;2023-01-01T15:29:48;16.00;99.90
10530;DHT22;5313;48.834;9.228;2023-01-01T15:32:14;16.00;99.90
10530;DHT22;5313;48.834;9.228;2023-01-01T15:34:49;15.90;99.90
10530;DHT22;5313;48.834;9.228;2023-01-01T15:37:41;15.90;99.90
10530;DHT22;5313;48.834;9.228;2023-01-01T15:42:41;15.80;99.90
10530;DHT22;5313;48.834;9.228;2023-01-01T15:45:49;15.80;99.90
10530;DHT22;5313;48.834;9.228;2023-01-01T15:48:23;15.40;99.90
10530;DHT22;5313;48.834;9.228;2023-01-01T15:53:22;15.30;99.90
10530;DHT22;5313;48.834;9.228;2023-01-01T15:58:32;15.20;99.90
10530;DHT22;5313;48.834;9.228;2023-01-01T16:01:01;15.10;99.90
10530;DHT22;5313;48.834;9.228;2023-01-01T16:03:28;14.90;99.90
10530;DHT22;5313;48.834;9.228;2023-01-01T16:05:54;14.90;99.90
10530;DHT22;5313;48.834;9.228;2023-01-01T16:08:21;14.90;99.90
10530;DHT22;5313;48.834;9.228;2023-01-01T16:10:47;14.80;99.90
10530;DHT22;5313;48.834;9.228;2023-01-01T16:13:13;14.70;99.90
10530;DHT22;5313;48.834;9.228;2023-01-01T16:16:23;14.50;99.90
10530;DHT22;5313;48.834;9.228;2023-01-01T16:18:49;14.30;99.90
10530;DHT22;5313;48.834;9.228;2023-01-01T16:21:14;14.20;99.90
10530;DHT22;5313;48.834;9.228;2023-01-01T16:23:40;14.10;99.90
10530;DHT22;5313;48.834;9.228;2023-01-01T16:26:05;14.00;99.90
10530;DHT22;5313;48.834;9.228;2023-01-01T16:28:31;14.00;99.90
10530;DHT22;5313;48.834;9.228;2023-01-01T16:30:57;14.00;99.90
10530;DHT22;5313;48.834;9.228;2023-01-01T16:33:22;14.00;99.90
10530;DHT22;5313;48.834;9.228;2023-01-01T16:35:48;13.90;99.90
10530;DHT22;5313;48.834;9.228;2023-01-01T16:38:14;13.90;99.90
10530;DHT22;5313;48.834;9.228;2023-01-01T16:40:39;13.80;99.90
10530;DHT22;5313;48.834;9.228;2023-01-01T16:43:05;13.70;99.90
10530;DHT22;5313;48.834;9.228;2023-01-01T16:45:34;13.60;99.90
10530;DHT22;5313;48.834;9.228;2023-01-01T16:48:00;13.60;99.90
10530;DHT22;5313;48.834;9.228;2023-01-01T16:50:26;13.50;99.90
10530;DHT22;5313;48.834;9.228;2023-01-01T16:52:51;13.50;99.90
10530;DHT22;5313;48.834;9.228;2023-01-01T16:55:17;13.40;99.90
10530;DHT22;5313;48.834;9.228;2023-01-01T16:57:42;13.30;99.90
10530;DHT22;5313;48.834;9.228;2023-01-01T17:00:09;13.30;99.90
10530;DHT22;5313;48.834;9.228;2023-01-01T17:02:34;13.10;99.90
10530;DHT22;5313;48.834;9.228;2023-01-01T17:05:00;13.20;99.90
10530;DHT22;5313;48.834;9.228;2023-01-01T17:07:26;13.40;99.90
10530;DHT22;5313;48.834;9.228;2023-01-01T17:09:51;13.30;99.90
10530;DHT22;5313;48.834;9.228;2023-01-01T17:12:17;13.20;99.90
10530;DHT22;5313;48.834;9.228;2023-01-01T17:14:42;13.20;99.90
10530;DHT22;5313;48.834;9.228;2023-01-01T17:17:08;13.30;99.90
10530;DHT22;5313;48.834;9.228;2023-01-01T17:19:33;13.50;99.90
10530;DHT22;5313;48.834;9.228;2023-01-01T17:21:59;13.50;99.90
10530;DHT22;5313;48.834;9.228;2023-01-01T17:24:25;13.60;99.90
10530;DHT22;5313;48.834;9.228;2023-01-01T17:26:52;13.40;99.90
10530;DHT22;5313;48.834;9.228;2023-01-01T17:29:19;13.60;99.90
10530;DHT22;5313;48.834;9.228;2023-01-01T17:31:45;14.00;99.90
10530;DHT22;5313;48.834;9.228;2023-01-01T17:34:11;14.20;99.90
10530;DHT22;5313;48.834;9.228;2023-01-01T17:36:43;14.30;99.90
10530;DHT22;5313;48.834;9.228;2023-01-01T17:39:11;14.40;99.90
10530;DHT22;5313;48.834;9.228;2023-01-01T17:41:36;14.20;99.90
10530;DHT22;5313;48.834;9.228;2023-01-01T17:44:02;13.80;99.90
10530;DHT22;5313;48.834;9.228;2023-01-01T17:46:29;13.30;99.90
10530;DHT22;5313;48.834;9.228;2023-01-01T17:48:55;13.00;99.90
10530;DHT22;5313;48.834;9.228;2023-01-01T17:51:21;12.80;99.90
10530;DHT22;5313;48.834;9.228;2023-01-01T17:53:47;12.70;99.90